Austin/Bergstrom AFB, Texas
Current Conditions -  °F | °C
As of 5:53 AM on Thursday 18 Dec 2014 (Local Time) from KAUS Reporting Station
Drizzle Drizzle  
Wind Chill: 45°   Ceiling: 200
Heat Index: 48°   Visibility: 0.75mi
Dew Point: 48°   Wind: 6mph
Humidity: 100%   Direction: 360°N
Pressure: 30.09"   Gusts: NA
Location:  30.2°N, 97.68°W
Report Text: KAUS 181153Z 36005KT 3/4SM R17L/P6000FT -DZ BR OVC002 09/09 A3009 RMK AO2 SLP192 P0000 60000 70019 T00890089 10111 20089 55002
Loading
Personal Weather Stations






























Interactive Weather Map New forecast layout! Learn more

10-Day Weather Forecast

Advertisements
Track Severe Weather on mobile